Time;durP1;ratioP1;P1;durP2;ratioP2;P2;SDS_P1;SDS_P2;PMS_P1;PMS_P2;Temp;Humidity;BMP_temperature;BMP_pressure;BME280_temperature;BME280_humidity;BME280_pressure;Samples;Min_cycle;Max_cycle;Signal;HPM_P1;HPM_P2
2021/10/16 00:02:13;;;;;;;15.30;13.83;;;10.40;99.90;;;;;;5039079;28;20965;-90
2021/10/16 00:04:39;;;;;;;14.93;12.47;;;10.30;99.90;;;;;;5038622;28;20438;-89
2021/10/16 00:07:08;;;;;;;14.43;12.97;;;10.30;99.90;;;;;;5051290;28;20481;-89
2021/10/16 00:09:34;;;;;;;15.43;13.23;;;10.30;99.90;;;;;;5037466;28;20433;-91
2021/10/16 00:12:02;;;;;;;13.87;12.17;;;10.20;99.90;;;;;;5038267;28;20426;-91
2021/10/16 00:14:29;;;;;;;13.67;12.17;;;10.10;99.90;;;;;;5040022;28;20963;-90
2021/10/16 00:16:55;;;;;;;14.83;12.93;;;10.10;99.90;;;;;;5039344;28;20437;-89
2021/10/16 00:19:22;;;;;;;19.60;12.80;;;10.00;99.90;;;;;;5038571;28;20438;-90
2021/10/16 00:21:49;;;;;;;16.10;12.60;;;10.00;99.90;;;;;;5038351;28;20465;-88
2021/10/16 00:24:18;;;;;;;14.77;13.20;;;9.90;99.90;;;;;;5038409;28;20457;-91
2021/10/16 00:26:45;;;;;;;14.07;12.10;;;9.80;99.90;;;;;;5038954;28;20548;-90
2021/10/16 00:29:11;;;;;;;13.87;12.43;;;9.80;99.90;;;;;;5039064;28;20947;-90
2021/10/16 00:31:38;;;;;;;13.60;11.40;;;9.80;99.90;;;;;;5040742;28;20442;-90
2021/10/16 00:34:05;;;;;;;14.40;12.90;;;9.70;99.90;;;;;;5041203;28;20734;-90
2021/10/16 00:36:32;;;;;;;15.43;12.47;;;9.80;99.90;;;;;;5041223;28;20934;-90
2021/10/16 00:38:59;;;;;;;16.40;12.90;;;9.80;99.90;;;;;;5046939;28;20942;-90
2021/10/16 00:41:27;;;;;;;14.43;12.90;;;9.80;99.90;;;;;;5042831;28;20457;-89
2021/10/16 00:44:12;;;;;;;18.87;14.13;;;9.80;99.90;;;;;;5047827;28;20469;-88
2021/10/16 00:46:39;;;;;;;17.03;13.67;;;9.80;99.90;;;;;;5055328;28;20491;-89
2021/10/16 00:49:06;;;;;;;15.77;14.03;;;9.70;99.90;;;;;;5049210;28;20910;-89
2021/10/16 00:51:34;;;;;;;14.63;13.23;;;9.70;99.90;;;;;;5039969;28;20465;-90
2021/10/16 00:54:01;;;;;;;14.13;12.70;;;9.70;99.90;;;;;;5036078;28;20445;-89
2021/10/16 00:56:29;;;;;;;16.70;15.00;;;9.70;99.90;;;;;;5037824;28;20437;-89
2021/10/16 00:58:57;;;;;;;13.07;11.63;;;9.60;99.90;;;;;;5037534;28;20458;-90
2021/10/16 01:01:24;;;;;;;17.43;13.37;;;9.60;99.90;;;;;;5037380;28;20480;-90
2021/10/16 01:03:51;;;;;;;15.97;14.27;;;9.60;99.90;;;;;;5046450;28;20433;-87
2021/10/16 01:06:18;;;;;;;14.23;12.80;;;9.60;99.90;;;;;;5053278;28;20473;-90
2021/10/16 01:08:45;;;;;;;15.00;12.37;;;9.60;99.90;;;;;;5048278;28;20425;-89
2021/10/16 01:11:12;;;;;;;14.20;12.70;;;9.50;99.90;;;;;;5045467;28;20457;-89
2021/10/16 01:13:40;;;;;;;14.60;11.90;;;9.50;99.90;;;;;;5055279;28;20515;-89
2021/10/16 01:16:08;;;;;;;13.47;12.07;;;9.50;99.90;;;;;;5043042;28;20442;-90
2021/10/16 01:18:36;;;;;;;13.27;11.93;;;9.40;99.90;;;;;;5036987;28;20445;-90
2021/10/16 01:21:07;;;;;;;12.83;11.53;;;9.40;99.90;;;;;;5036773;28;20473;-90
2021/10/16 01:23:34;;;;;;;12.83;11.53;;;9.40;99.90;;;;;;5034338;28;20892;-90
2021/10/16 01:26:02;;;;;;;13.50;12.00;;;9.40;99.90;;;;;;5031572;28;20501;-90
2021/10/16 01:28:30;;;;;;;13.60;11.20;;;9.40;99.90;;;;;;5033695;28;20952;-90
2021/10/16 01:30:57;;;;;;;13.07;11.73;;;9.40;99.90;;;;;;5043026;28;20465;-89
2021/10/16 01:33:26;;;;;;;12.90;11.60;;;9.40;99.90;;;;;;5048798;28;20996;-90
2021/10/16 01:36:00;;;;;;;14.10;12.63;;;9.40;99.90;;;;;;5034063;28;20465;-89
2021/10/16 01:38:29;;;;;;;16.10;12.50;;;9.40;99.90;;;;;;5033165;28;20532;-89
2021/10/16 01:40:56;;;;;;;13.70;12.20;;;9.40;99.90;;;;;;5032170;28;20461;-89
2021/10/16 01:43:23;;;;;;;14.00;11.53;;;9.40;99.90;;;;;;5032906;28;21138;-91
2021/10/16 01:45:51;;;;;;;11.73;10.63;;;9.60;99.90;;;;;;5032322;28;20488;-89
2021/10/16 01:48:22;;;;;;;15.07;13.57;;;9.60;99.90;;;;;;5033276;28;20450;-90
2021/10/16 01:50:51;;;;;;;16.07;12.87;;;9.60;99.90;;;;;;5031649;28;21199;-90
2021/10/16 01:53:18;;;;;;;14.00;11.97;;;9.60;99.90;;;;;;5031231;28;20445;-90
2021/10/16 01:55:47;;;;;;;19.90;12.30;;;9.60;99.90;;;;;;5030669;28;20452;-90
2021/10/16 01:58:16;;;;;;;16.73;13.33;;;9.50;99.90;;;;;;5032686;28;20442;-89
2021/10/16 02:00:47;;;;;;;16.80;13.80;;;9.60;99.90;;;;;;5032478;28;20477;-90
2021/10/16 02:03:14;;;;;;;15.13;13.33;;;9.60;99.90;;;;;;5032852;28;20446;-89
2021/10/16 02:05:42;;;;;;;14.83;12.90;;;9.60;99.90;;;;;;5032780;28;20442;-90
2021/10/16 02:08:09;;;;;;;14.23;12.90;;;9.60;99.90;;;;;;5033217;28;20453;-89
2021/10/16 02:10:36;;;;;;;14.40;12.87;;;9.60;99.90;;;;;;5033023;28;20468;-90
2021/10/16 02:13:05;;;;;;;13.50;12.17;;;9.70;99.90;;;;;;5032283;28;20437;-89
2021/10/16 02:15:32;;;;;;;14.00;12.67;;;9.70;99.90;;;;;;5032713;28;20448;-90
2021/10/16 02:17:59;;;;;;;13.73;12.30;;;9.70;99.90;;;;;;5038164;28;20437;-89
2021/10/16 02:20:26;;;;;;;13.07;11.63;;;9.70;99.90;;;;;;5040286;28;20537;-89
2021/10/16 02:22:52;;;;;;;13.70;12.40;;;9.70;99.90;;;;;;5041577;28;20460;-90
2021/10/16 02:25:19;;;;;;;15.40;12.20;;;9.70;99.90;;;;;;5033759;28;20448;-90
2021/10/16 02:27:46;;;;;;;13.33;12.00;;;9.70;99.90;;;;;;5031566;28;20487;-89
2021/10/16 02:30:14;;;;;;;15.50;13.50;;;9.70;99.90;;;;;;5048537;28;20496;-89
2021/10/16 02:32:41;;;;;;;15.60;12.47;;;9.80;99.90;;;;;;5050155;28;21014;-89
2021/10/16 02:35:08;;;;;;;14.87;12.93;;;9.80;99.90;;;;;;5041139;28;20454;-89
2021/10/16 02:37:35;;;;;;;12.67;11.40;;;9.80;99.90;;;;;;5036769;28;20476;-90
2021/10/16 02:40:02;;;;;;;16.00;12.40;;;9.90;99.90;;;;;;5047446;28;20445;-88
2021/10/16 02:42:29;;;;;;;13.47;12.07;;;9.90;99.90;;;;;;5055100;28;20448;-89
2021/10/16 02:44:56;;;;;;;18.67;13.37;;;9.90;99.90;;;;;;5040716;28;20487;-90
2021/10/16 02:47:24;;;;;;;13.57;11.83;;;9.90;99.90;;;;;;5054384;28;20499;-89
2021/10/16 02:49:51;;;;;;;14.50;12.77;;;9.90;99.90;;;;;;5057867;28;20465;-89
2021/10/16 02:52:18;;;;;;;15.20;12.93;;;10.00;99.90;;;;;;5059661;28;20451;-88
2021/10/16 02:54:45;;;;;;;15.93;13.30;;;10.00;99.90;;;;;;5053828;28;20452;-88
2021/10/16 02:57:11;;;;;;;14.77;12.93;;;10.00;99.90;;;;;;5057017;28;20449;-88
2021/10/16 02:59:38;;;;;;;13.40;11.90;;;10.00;99.90;;;;;;5056709;28;20434;-89
2021/10/16 03:02:05;;;;;;;16.80;13.40;;;10.00;99.90;;;;;;5041764;28;20444;-89
2021/10/16 03:04:33;;;;;;;13.43;11.73;;;10.00;99.90;;;;;;5049139;28;20446;-87
2021/10/16 03:06:59;;;;;;;14.30;12.40;;;10.00;99.90;;;;;;5050343;28;20476;-89
2021/10/16 03:09:26;;;;;;;15.30;12.90;;;9.90;99.90;;;;;;5040263;28;20448;-90
2021/10/16 03:11:53;;;;;;;14.30;12.90;;;9.90;99.90;;;;;;5039366;28;20449;-89
2021/10/16 03:14:20;;;;;;;13.87;12.40;;;10.10;99.90;;;;;;5040240;28;20425;-90
2021/10/16 03:16:49;;;;;;;13.13;11.93;;;10.10;99.90;;;;;;5036095;28;20440;-90
2021/10/16 03:19:16;;;;;;;16.77;12.60;;;10.10;99.90;;;;;;5037137;28;20449;-89
2021/10/16 03:21:44;;;;;;;14.13;12.63;;;10.10;99.90;;;;;;5037184;28;20468;-90
2021/10/16 03:24:11;;;;;;;14.07;12.70;;;10.10;99.90;;;;;;5038583;28;20447;-91
2021/10/16 03:26:38;;;;;;;15.40;12.77;;;10.00;99.90;;;;;;5036031;28;21008;-89
2021/10/16 03:29:05;;;;;;;13.63;12.23;;;10.00;99.90;;;;;;5038913;28;20942;-90
2021/10/16 03:31:31;;;;;;;14.60;13.00;;;10.00;99.90;;;;;;5039835;28;20449;-89
2021/10/16 03:33:58;;;;;;;13.83;12.53;;;9.90;99.90;;;;;;5039963;28;20457;-91
2021/10/16 03:36:25;;;;;;;13.97;12.30;;;9.90;99.90;;;;;;5040805;28;20448;-91
2021/10/16 03:38:54;;;;;;;13.73;12.33;;;9.80;99.90;;;;;;5039239;28;20454;-89
2021/10/16 03:41:21;;;;;;;14.30;12.83;;;9.70;99.90;;;;;;5041860;28;20458;-90
2021/10/16 03:43:48;;;;;;;16.67;12.80;;;9.70;99.90;;;;;;5040581;28;20481;-90
2021/10/16 03:46:15;;;;;;;16.77;13.10;;;9.70;99.90;;;;;;5037817;28;20449;-90
2021/10/16 03:48:42;;;;;;;14.40;12.90;;;9.70;99.90;;;;;;5044529;28;20441;-92
2021/10/16 03:51:09;;;;;;;14.07;12.57;;;9.70;99.90;;;;;;5044638;28;20473;-89
2021/10/16 03:53:36;;;;;;;14.20;11.40;;;9.70;99.90;;;;;;5052237;28;20434;-91
2021/10/16 03:56:05;;;;;;;14.27;12.77;;;9.60;99.90;;;;;;5053374;28;20441;-91
2021/10/16 03:58:31;;;;;;;12.33;11.20;;;9.70;99.90;;;;;;5048051;28;20820;-90
2021/10/16 04:01:00;;;;;;;13.77;12.03;;;9.70;99.90;;;;;;5054650;28;20500;-90
2021/10/16 04:03:27;;;;;;;16.07;12.37;;;9.70;99.90;;;;;;5048095;28;20453;-91
2021/10/16 04:05:54;;;;;;;13.80;12.50;;;9.70;99.90;;;;;;5048451;28;20459;-89
2021/10/16 04:08:21;;;;;;;13.03;11.70;;;9.60;99.90;;;;;;5050193;28;20480;-90
2021/10/16 04:10:48;;;;;;;14.47;11.30;;;9.60;99.90;;;;;;5039791;28;21248;-90
2021/10/16 04:13:16;;;;;;;15.13;13.53;;;9.60;99.90;;;;;;5037264;28;20444;-89
2021/10/16 04:15:43;;;;;;;17.90;12.50;;;9.60;99.90;;;;;;5037113;28;20818;-86
2021/10/16 04:18:10;;;;;;;16.33;12.27;;;9.60;99.90;;;;;;5047815;28;20457;-86
2021/10/16 04:20:37;;;;;;;12.00;10.97;;;9.60;99.90;;;;;;5053778;28;20495;-85
2021/10/16 04:23:04;;;;;;;13.63;12.23;;;9.60;99.90;;;;;;5037039;28;20572;-87
2021/10/16 04:25:31;;;;;;;13.27;11.73;;;9.60;99.90;;;;;;5042329;28;20438;-86
2021/10/16 04:27:58;;;;;;;14.33;11.90;;;9.60;99.90;;;;;;5037242;28;21283;-86
2021/10/16 04:30:26;;;;;;;13.80;11.60;;;9.70;99.90;;;;;;5036085;28;20468;-86
2021/10/16 04:32:53;;;;;;;14.43;12.93;;;9.70;99.90;;;;;;5038191;28;20452;-87
2021/10/16 04:35:20;;;;;;;12.77;11.47;;;9.70;99.90;;;;;;5053096;28;20442;-86
2021/10/16 04:37:47;;;;;;;12.60;11.40;;;9.70;99.90;;;;;;5053221;28;20501;-87
2021/10/16 04:40:18;;;;;;;13.13;11.43;;;9.70;99.90;;;;;;5050496;28;20456;-86
2021/10/16 04:42:45;;;;;;;13.83;12.53;;;9.70;99.90;;;;;;5045850;28;20505;-86
2021/10/16 04:45:13;;;;;;;11.90;10.53;;;9.70;99.90;;;;;;5041200;28;20444;-88
2021/10/16 04:47:41;;;;;;;12.40;11.10;;;9.60;99.90;;;;;;5034790;28;20557;-88
2021/10/16 04:50:09;;;;;;;15.60;11.87;;;9.70;99.90;;;;;;5034826;28;20526;-87
2021/10/16 04:52:36;;;;;;;14.00;11.90;;;9.70;99.90;;;;;;5035935;28;20496;-87
2021/10/16 04:55:03;;;;;;;16.10;12.40;;;9.60;99.90;;;;;;5036526;28;20449;-88
2021/10/16 04:57:30;;;;;;;13.40;11.93;;;9.60;99.90;;;;;;5035635;28;20441;-89
2021/10/16 04:59:57;;;;;;;13.50;11.80;;;9.70;99.90;;;;;;5033293;28;20538;-89
2021/10/16 05:02:25;;;;;;;12.67;11.47;;;9.60;99.90;;;;;;5033841;28;20456;-89
2021/10/16 05:04:54;;;;;;;18.33;11.77;;;9.60;99.90;;;;;;5044928;28;20449;-88
2021/10/16 05:07:21;;;;;;;13.57;12.17;;;9.60;99.90;;;;;;5051285;28;20476;-89
2021/10/16 05:09:49;;;;;;;12.17;10.93;;;9.60;99.90;;;;;;5054842;28;20462;-89
2021/10/16 05:12:16;;;;;;;13.30;11.27;;;9.60;99.90;;;;;;5055887;28;20449;-88
2021/10/16 05:14:43;;;;;;;11.50;10.40;;;9.70;99.90;;;;;;5038655;28;20859;-89
2021/10/16 05:17:09;;;;;;;12.30;11.00;;;9.60;99.90;;;;;;5038366;28;20433;-89
2021/10/16 05:19:36;;;;;;;15.17;10.37;;;9.70;99.90;;;;;;5055361;28;20456;-89
2021/10/16 05:22:05;;;;;;;13.50;12.13;;;9.70;99.90;;;;;;5033897;28;20449;-89
2021/10/16 05:24:32;;;;;;;12.30;11.10;;;9.70;99.90;;;;;;5034510;28;20438;-89
2021/10/16 05:26:58;;;;;;;13.17;11.77;;;9.70;99.90;;;;;;5034704;28;20580;-89
2021/10/16 05:29:25;;;;;;;12.60;11.13;;;9.70;99.90;;;;;;5037890;28;20445;-90
2021/10/16 05:31:52;;;;;;;13.50;12.13;;;9.70;99.90;;;;;;5036721;28;20456;-89
2021/10/16 05:34:19;;;;;;;12.57;11.23;;;9.70;99.90;;;;;;5034770;28;20456;-90
2021/10/16 05:36:45;;;;;;;12.40;11.20;;;9.70;99.90;;;;;;5035114;28;20457;-90
2021/10/16 05:39:13;;;;;;;13.53;11.30;;;9.80;99.90;;;;;;5033646;28;20441;-89
2021/10/16 05:41:40;;;;;;;16.10;11.70;;;9.80;99.90;;;;;;5036103;28;20500;-89
2021/10/16 05:44:07;;;;;;;12.07;10.87;;;9.80;99.90;;;;;;5036174;28;20448;-90
2021/10/16 05:46:36;;;;;;;12.80;10.63;;;9.90;99.90;;;;;;5032908;28;20448;-89
2021/10/16 05:49:03;;;;;;;14.00;11.53;;;9.80;99.90;;;;;;5034730;28;20482;-89
2021/10/16 05:51:30;;;;;;;15.60;12.63;;;9.80;99.90;;;;;;5039617;28;20476;-89
2021/10/16 05:53:57;;;;;;;15.60;13.87;;;9.70;99.90;;;;;;5032895;28;20473;-89
2021/10/16 05:56:26;;;;;;;12.00;10.93;;;9.70;99.90;;;;;;5032937;28;20449;-89
2021/10/16 05:58:58;;;;;;;12.80;11.53;;;9.60;99.90;;;;;;5037442;28;20994;-89
2021/10/16 06:01:25;;;;;;;12.90;11.50;;;9.60;99.90;;;;;;5037035;28;20485;-89
2021/10/16 06:03:52;;;;;;;12.37;11.13;;;9.60;99.90;;;;;;5034111;28;20438;-88
2021/10/16 06:06:18;;;;;;;12.87;11.57;;;9.60;99.90;;;;;;5041632;28;20444;-89
2021/10/16 06:08:45;;;;;;;12.63;11.33;;;9.60;99.90;;;;;;5050893;28;20476;-89
2021/10/16 06:11:12;;;;;;;13.83;12.17;;;9.70;99.90;;;;;;5036825;28;20476;-88
2021/10/16 06:13:40;;;;;;;14.50;11.83;;;9.70;99.90;;;;;;5046460;28;20452;-88
2021/10/16 06:16:07;;;;;;;12.27;11.07;;;9.80;99.90;;;;;;5058910;28;20449;-88
2021/10/16 06:18:33;;;;;;;13.57;11.87;;;9.80;99.90;;;;;;5057113;28;20437;-89
2021/10/16 06:21:01;;;;;;;12.33;11.13;;;9.80;99.90;;;;;;5048300;28;20452;-90
2021/10/16 06:23:28;;;;;;;13.33;11.10;;;9.90;99.90;;;;;;5047725;28;20437;-89
2021/10/16 06:25:55;;;;;;;13.70;11.87;;;9.90;99.90;;;;;;5037614;28;20864;-89
2021/10/16 06:28:21;;;;;;;13.27;12.10;;;9.90;99.90;;;;;;5036934;28;20480;-88
2021/10/16 06:30:49;;;;;;;12.20;10.93;;;10.00;99.90;;;;;;5037115;28;20465;-89
2021/10/16 06:33:17;;;;;;;13.80;10.97;;;10.10;99.90;;;;;;5055364;28;20444;-89
2021/10/16 06:35:44;;;;;;;12.47;11.27;;;10.10;99.90;;;;;;5052531;28;20449;-89
2021/10/16 06:38:10;;;;;;;12.43;11.23;;;10.20;99.90;;;;;;5051319;28;20445;-89
2021/10/16 06:40:37;;;;;;;13.90;11.47;;;10.20;99.90;;;;;;5044035;28;20453;-89
2021/10/16 06:43:04;;;;;;;11.93;10.83;;;10.30;99.90;;;;;;5040874;28;20446;-90
2021/10/16 06:45:31;;;;;;;11.67;10.53;;;10.30;99.90;;;;;;5043663;28;20445;-90
2021/10/16 06:47:59;;;;;;;13.00;11.63;;;10.40;99.90;;;;;;5043010;28;20473;-89
2021/10/16 06:50:26;;;;;;;12.50;11.30;;;10.30;99.90;;;;;;5045312;28;20458;-89
2021/10/16 06:52:52;;;;;;;13.83;10.93;;;10.40;99.90;;;;;;5043926;28;20853;-90
2021/10/16 06:55:19;;;;;;;11.30;10.00;;;10.40;99.90;;;;;;5039475;28;20454;-88
2021/10/16 06:57:46;;;;;;;13.90;11.77;;;10.50;99.90;;;;;;5040352;28;20444;-90
2021/10/16 07:00:13;;;;;;;12.70;11.50;;;10.60;99.90;;;;;;5038204;28;20830;-90
2021/10/16 07:02:40;;;;;;;12.20;10.67;;;10.50;99.90;;;;;;5040436;28;20465;-87
2021/10/16 07:05:09;;;;;;;11.97;10.53;;;10.60;99.90;;;;;;5035219;28;20793;-87
2021/10/16 07:07:36;;;;;;;11.43;10.37;;;10.60;99.90;;;;;;5034121;28;20491;-88
2021/10/16 07:10:02;;;;;;;12.43;11.23;;;10.60;99.90;;;;;;5036585;28;20464;-87
2021/10/16 07:12:32;;;;;;;13.40;12.27;;;10.50;99.90;;;;;;5037923;28;20476;-89
2021/10/16 07:14:58;;;;;;;13.37;11.73;;;10.50;99.90;;;;;;5039199;28;20488;-90
2021/10/16 07:17:25;;;;;;;15.47;11.00;;;10.50;99.90;;;;;;5038308;28;20448;-89
2021/10/16 07:19:52;;;;;;;11.47;10.47;;;10.70;99.90;;;;;;5048177;28;20468;-90
2021/10/16 07:22:21;;;;;;;14.97;13.37;;;10.70;99.90;;;;;;5055819;28;20444;-90
2021/10/16 07:24:48;;;;;;;14.83;13.43;;;10.80;99.90;;;;;;5050289;28;20480;-90
2021/10/16 07:27:15;;;;;;;14.90;13.40;;;10.80;99.90;;;;;;5042039;28;20436;-90
2021/10/16 07:29:42;;;;;;;15.40;13.80;;;10.80;99.90;;;;;;5058443;28;20435;-89
2021/10/16 07:32:09;;;;;;;14.37;12.97;;;10.80;99.90;;;;;;5052282;28;20436;-89
2021/10/16 07:34:36;;;;;;;16.87;14.37;;;10.80;99.90;;;;;;5045582;28;20446;-91
2021/10/16 07:37:03;;;;;;;15.20;13.60;;;10.90;99.90;;;;;;5051189;28;20414;-92
2021/10/16 07:39:31;;;;;;;15.07;13.63;;;10.80;99.90;;;;;;5040982;28;20446;-90
2021/10/16 07:41:59;;;;;;;14.47;12.93;;;10.80;99.90;;;;;;5037894;28;20433;-90
2021/10/16 07:44:26;;;;;;;17.20;14.03;;;10.80;99.90;;;;;;5036875;28;20488;-91
2021/10/16 07:46:53;;;;;;;15.73;14.17;;;10.90;99.90;;;;;;5036972;28;21000;-91
2021/10/16 07:49:19;;;;;;;13.90;11.87;;;10.90;99.90;;;;;;5037174;28;21055;-91
2021/10/16 07:51:46;;;;;;;13.47;12.03;;;11.00;99.90;;;;;;5037253;28;20544;-91
2021/10/16 07:54:13;;;;;;;13.97;12.57;;;11.00;99.90;;;;;;5036877;28;20430;-89
2021/10/16 07:56:52;;;;;;;16.17;12.67;;;11.10;99.90;;;;;;5044854;28;20442;-91
2021/10/16 07:59:19;;;;;;;15.73;13.60;;;11.20;99.90;;;;;;5058008;28;20445;-91
2021/10/16 08:01:46;;;;;;;15.90;13.80;;;11.20;99.90;;;;;;5055393;28;20510;-91
2021/10/16 08:04:12;;;;;;;15.87;14.27;;;11.30;99.90;;;;;;5056101;28;20590;-91
2021/10/16 08:06:39;;;;;;;15.80;13.80;;;11.40;99.90;;;;;;5049355;28;20429;-90
2021/10/16 08:09:06;;;;;;;21.73;13.97;;;11.50;99.90;;;;;;5053784;28;20478;-91
2021/10/16 08:11:34;;;;;;;18.77;13.47;;;11.60;99.90;;;;;;5038312;28;20534;-91
2021/10/16 08:14:02;;;;;;;15.30;13.70;;;11.50;99.90;;;;;;5036189;28;20508;-91
2021/10/16 08:16:29;;;;;;;21.17;15.80;;;11.60;99.90;;;;;;5034155;28;21083;-90
2021/10/16 08:18:58;;;;;;;17.47;15.20;;;11.60;99.90;;;;;;5034954;28;20499;-91
2021/10/16 08:21:24;;;;;;;15.83;14.33;;;11.70;99.90;;;;;;5035238;28;20461;-90
2021/10/16 08:23:51;;;;;;;18.47;15.27;;;11.70;99.90;;;;;;5033828;28;20897;-91
2021/10/16 08:26:18;;;;;;;18.30;15.30;;;11.80;99.90;;;;;;5035294;28;20453;-91
2021/10/16 08:28:48;;;;;;;18.07;16.20;;;11.80;99.90;;;;;;5035162;28;21228;-90
2021/10/16 08:31:17;;;;;;;20.50;14.40;;;11.80;99.90;;;;;;5035754;28;20958;-90
2021/10/16 08:33:44;;;;;;;22.73;15.90;;;11.90;99.90;;;;;;5035022;28;20865;-90
2021/10/16 08:36:12;;;;;;;20.77;15.67;;;11.90;99.90;;;;;;5039476;28;20445;-89
2021/10/16 08:38:39;;;;;;;21.83;18.20;;;12.00;99.90;;;;;;5033716;28;20445;-88
2021/10/16 08:41:09;;;;;;;22.77;17.60;;;11.80;99.90;;;;;;5035833;28;20492;-89
2021/10/16 08:43:36;;;;;;;19.47;15.70;;;11.80;99.90;;;;;;5038663;28;20452;-89
2021/10/16 08:46:03;;;;;;;20.43;16.40;;;11.90;99.90;;;;;;5043978;28;20441;-88
2021/10/16 08:48:32;;;;;;;17.90;14.97;;;12.00;99.90;;;;;;5038066;28;20476;-88
2021/10/16 08:51:01;;;;;;;20.70;17.30;;;12.20;99.90;;;;;;5036036;28;20472;-89
2021/10/16 08:53:28;;;;;;;23.70;18.03;;;12.20;99.90;;;;;;5036013;28;20441;-88
2021/10/16 08:55:55;;;;;;;21.53;19.23;;;12.20;99.90;;;;;;5035769;28;20444;-89
2021/10/16 08:58:22;;;;;;;21.30;18.00;;;12.30;99.90;;;;;;5038376;28;20442;-90
2021/10/16 09:00:52;;;;;;;23.80;18.33;;;12.40;99.90;;;;;;5036474;28;20473;-88
2021/10/16 09:03:24;;;;;;;24.30;19.23;;;12.40;99.90;;;;;;5036557;28;20507;-89
2021/10/16 09:06:05;;;;;;;25.13;20.27;;;12.20;99.90;;;;;;5036912;28;20446;-88
2021/10/16 09:08:33;;;;;;;19.83;17.40;;;12.20;99.90;;;;;;5034637;28;20475;-89
2021/10/16 09:11:15;;;;;;;20.10;17.80;;;12.10;99.90;;;;;;5032433;28;20472;-90
2021/10/16 09:13:44;;;;;;;22.37;18.70;;;12.10;99.90;;;;;;5032626;28;20426;-90
2021/10/16 09:16:23;;;;;;;21.77;17.90;;;12.10;99.90;;;;;;5035624;28;20450;-89
2021/10/16 09:18:52;;;;;;;22.43;18.40;;;12.20;99.90;;;;;;5036515;28;20460;-89
2021/10/16 09:21:22;;;;;;;20.13;17.93;;;12.30;99.90;;;;;;5045729;28;20457;-88
2021/10/16 09:24:00;;;;;;;19.30;17.30;;;12.30;99.90;;;;;;5042007;28;20441;-89
2021/10/16 09:26:27;;;;;;;20.33;18.20;;;12.30;99.90;;;;;;5040170;28;20455;-89
2021/10/16 09:28:57;;;;;;;18.10;16.30;;;12.40;99.90;;;;;;5034872;28;20488;-90
2021/10/16 09:31:31;;;;;;;20.40;18.37;;;12.30;99.90;;;;;;5036978;28;20493;-91
2021/10/16 09:33:58;;;;;;;20.50;18.07;;;12.00;99.90;;;;;;5043415;28;20449;-89
2021/10/16 09:36:27;;;;;;;20.30;17.37;;;12.10;99.90;;;;;;5054909;28;20452;-89
2021/10/16 09:38:54;;;;;;;18.07;15.70;;;12.30;99.90;;;;;;5039867;28;20453;-90
2021/10/16 09:41:25;;;;;;;18.77;16.87;;;12.50;99.90;;;;;;5036635;28;20474;-90
2021/10/16 09:43:52;;;;;;;20.70;17.13;;;12.60;99.90;;;;;;5038898;28;20445;-89
2021/10/16 09:46:21;;;;;;;17.90;16.17;;;12.70;99.90;;;;;;5037656;28;20499;-90
2021/10/16 09:48:48;;;;;;;17.80;15.87;;;12.60;99.90;;;;;;5041972;28;20982;-92
2021/10/16 09:51:15;;;;;;;17.63;15.47;;;12.60;99.90;;;;;;5057175;28;20472;-86
2021/10/16 09:53:45;;;;;;;18.67;16.73;;;12.60;99.90;;;;;;5046382;28;20480;-86
2021/10/16 09:56:12;;;;;;;18.20;15.57;;;12.60;99.90;;;;;;5047445;28;20452;-86
2021/10/16 09:58:40;;;;;;;20.07;17.77;;;12.80;99.90;;;;;;5038716;28;20434;-89
2021/10/16 10:01:13;;;;;;;18.17;16.20;;;12.90;99.90;;;;;;5056917;28;20542;-91
2021/10/16 10:03:44;;;;;;;18.77;16.93;;;13.00;99.90;;;;;;5059039;28;20453;-88
2021/10/16 10:06:16;;;;;;;18.00;16.20;;;13.00;99.90;;;;;;5035217;28;20460;-88
2021/10/16 10:08:44;;;;;;;17.00;15.30;;;13.10;99.90;;;;;;5036935;28;20564;-88
2021/10/16 10:11:12;;;;;;;19.90;15.47;;;13.30;99.90;;;;;;5039907;28;20483;-91
2021/10/16 10:13:40;;;;;;;18.90;16.90;;;13.50;99.90;;;;;;5045112;28;20455;-90
2021/10/16 10:16:07;;;;;;;20.13;15.43;;;13.60;99.90;;;;;;5019225;28;20973;-88
2021/10/16 10:21:21;;;;;;;17.20;14.83;;;13.80;99.90;;;;;;5029444;28;20453;-89
2021/10/16 10:23:59;;;;;;;16.97;14.60;;;13.90;99.90;;;;;;5040393;28;20445;-90
2021/10/16 10:26:27;;;;;;;16.40;14.90;;;14.00;99.90;;;;;;5016199;28;20829;-90
2021/10/16 10:28:56;;;;;;;17.80;16.00;;;14.20;99.90;;;;;;5017505;28;20492;-89
2021/10/16 10:31:55;;;;;;;16.47;14.73;;;14.40;99.90;;;;;;5038723;28;20468;-90
2021/10/16 10:34:28;;;;;;;16.73;14.97;;;14.40;99.90;;;;;;5042944;28;20453;-91
2021/10/16 10:36:58;;;;;;;17.23;15.63;;;14.70;99.90;;;;;;5055654;28;20921;-87
2021/10/16 10:39:59;;;;;;;16.57;14.97;;;14.70;99.90;;;;;;5060053;28;20455;-89
2021/10/16 10:42:49;;;;;;;16.67;14.50;;;14.80;99.90;;;;;;5039501;28;20906;-90
2021/10/16 10:45:39;;;;;;;16.57;15.07;;;15.10;99.90;;;;;;5040915;28;20550;-89
2021/10/16 10:48:09;;;;;;;17.30;15.10;;;13.90;99.90;;;;;;5038886;28;20440;-89
2021/10/16 10:50:45;;;;;;;17.23;15.43;;;15.50;99.90;;;;;;5036969;28;21152;-88
2021/10/16 10:53:12;;;;;;;16.43;14.83;;;15.40;99.90;;;;;;5047049;28;20452;-89
2021/10/16 10:55:54;;;;;;;17.20;15.40;;;16.10;99.90;;;;;;5043034;28;20500;-88
2021/10/16 10:58:22;;;;;;;18.00;16.20;;;15.60;99.90;;;;;;5058192;28;20440;-88
2021/10/16 11:00:49;;;;;;;20.37;18.37;;;15.70;99.90;;;;;;5043432;28;20472;-89
2021/10/16 11:03:44;;;;;;;17.83;16.20;;;17.90;99.90;;;;;;5042094;28;20445;-89
2021/10/16 11:06:20;;;;;;;16.83;15.17;;;18.50;99.90;;;;;;5042440;28;21042;-89
2021/10/16 11:08:49;;;;;;;16.93;15.50;;;;;;;;;;5061225;28;20488;-90
2021/10/16 11:11:17;;;;;;;15.70;14.23;;;22.60;91.60;;;;;;5058358;28;20845;-92
2021/10/16 11:13:44;;;;;;;15.07;13.70;;;24.30;85.90;;;;;;5080043;23;20499;-89
2021/10/16 11:16:12;;;;;;;16.93;15.40;;;24.90;87.70;;;;;;5039535;28;20446;-90
2021/10/16 11:18:40;;;;;;;17.27;15.67;;;27.30;72.30;;;;;;5046839;28;20432;-87
2021/10/16 11:21:10;;;;;;;16.43;15.03;;;29.20;61.40;;;;;;5059137;28;20449;-87
2021/10/16 11:23:40;;;;;;;17.67;16.03;;;28.90;58.10;;;;;;5051524;28;20484;-87
2021/10/16 11:26:11;;;;;;;15.43;14.23;;;29.80;56.50;;;;;;5038452;28;20473;-88
2021/10/16 11:28:56;;;;;;;15.17;13.87;;;30.80;53.10;;;;;;5043204;28;20470;-92
2021/10/16 11:31:23;;;;;;;16.37;15.03;;;30.70;51.60;;;;;;5058097;28;20420;-85
2021/10/16 11:33:53;;;;;;;18.27;16.77;;;30.80;51.10;;;;;;5042746;28;20474;-92
2021/10/16 11:36:25;;;;;;;16.40;15.00;;;30.50;51.00;;;;;;5041400;28;20541;-89
2021/10/16 11:38:53;;;;;;;17.20;15.80;;;31.40;51.00;;;;;;5053519;28;20443;-89
2021/10/16 11:41:19;;;;;;;15.90;14.77;;;32.10;49.00;;;;;;5037579;28;20523;-88
2021/10/16 11:43:47;;;;;;;15.83;14.47;;;32.90;46.90;;;;;;5017749;28;20474;-82
2021/10/16 11:46:17;;;;;;;16.90;15.50;;;33.60;45.80;;;;;;5020658;28;20910;-81
2021/10/16 11:48:46;;;;;;;16.43;14.93;;;32.90;45.30;;;;;;5044757;28;20459;-81
2021/10/16 11:51:12;;;;;;;15.73;14.60;;;32.20;46.00;;;;;;5038553;28;20450;-81
2021/10/16 11:53:41;;;;;;;15.37;14.17;;;32.00;46.30;;;;;;5037579;28;20476;-81
2021/10/16 11:56:10;;;;;;;17.97;16.20;;;32.30;46.10;;;;;;5040115;28;20449;-82
2021/10/16 11:58:38;;;;;;;16.23;15.07;;;32.10;44.80;;;;;;5043137;28;20449;-82
2021/10/16 12:01:07;;;;;;;16.33;14.93;;;31.10;46.00;;;;;;5038614;28;20438;-82
2021/10/16 12:03:39;;;;;;;16.13;14.67;;;31.40;46.20;;;;;;5036975;28;20510;-87
2021/10/16 12:06:08;;;;;;;16.70;15.50;;;30.70;46.90;;;;;;5039961;28;20895;-87
2021/10/16 12:08:42;;;;;;;17.13;15.83;;;29.20;48.00;;;;;;5045886;28;20447;-87
2021/10/16 12:11:17;;;;;;;17.00;15.70;;;27.90;50.30;;;;;;5036937;28;20448;-86
2021/10/16 12:13:46;;;;;;;16.07;14.77;;;25.80;54.20;;;;;;5038280;28;20476;-87
2021/10/16 12:16:14;;;;;;;18.10;16.50;;;24.00;57.60;;;;;;5044049;28;20436;-86
2021/10/16 12:18:53;;;;;;;18.80;17.20;;;23.20;60.00;;;;;;5053215;28;20446;-86
2021/10/16 12:21:31;;;;;;;16.57;15.20;;;21.70;62.80;;;;;;5023151;28;20442;-86
2021/10/16 12:23:59;;;;;;;16.67;15.20;;;20.70;67.50;;;;;;5036303;28;20487;-86
2021/10/16 12:26:28;;;;;;;17.90;16.07;;;20.30;69.70;;;;;;5036923;28;20816;-87
2021/10/16 12:28:57;;;;;;;17.10;15.50;;;20.30;71.30;;;;;;5037402;28;20853;-87
2021/10/16 12:31:24;;;;;;;16.87;15.30;;;20.80;71.00;;;;;;5037362;28;20769;-87
2021/10/16 12:34:15;;;;;;;15.07;13.77;;;21.10;69.50;;;;;;5035977;28;20530;-87
2021/10/16 12:36:50;;;;;;;17.20;15.70;;;20.60;70.10;;;;;;5035158;28;20444;-87
2021/10/16 12:40:05;;;;;;;15.87;14.37;;;20.10;71.80;;;;;;5040249;28;20496;-93
2021/10/16 12:42:48;;;;;;;14.30;12.93;;;19.40;73.80;;;;;;5049820;28;20464;-87